sensor_id;sensor_type;location;lat;lon;timestamp;pressure;altitude;pressure_sealevel;temperature;humidity
20628;BME280;10473;42.734;24.258;2024-03-23T00:53:58;92202.06;;;1.98;56.24
20628;BME280;10473;42.734;24.258;2024-03-23T00:56:23;92186.13;;;1.96;56.13
20628;BME280;10473;42.734;24.258;2024-03-23T00:58:49;92195.31;;;1.81;56.60
20628;BME280;10473;42.734;24.258;2024-03-23T01:01:15;92188.81;;;1.87;56.26
20628;BME280;10473;42.734;24.258;2024-03-23T01:03:41;92191.13;;;1.72;57.06
20628;BME280;10473;42.734;24.258;2024-03-23T01:06:06;92197.50;;;1.76;56.82
20628;BME280;10473;42.734;24.258;2024-03-23T01:08:32;92186.25;;;1.60;56.95
20628;BME280;10473;42.734;24.258;2024-03-23T01:10:59;92200.91;;;1.84;56.36
20628;BME280;10473;42.734;24.258;2024-03-23T01:13:26;92203.13;;;1.88;56.41
20628;BME280;10473;42.734;24.258;2024-03-23T01:15:52;92194.75;;;1.95;56.35
20628;BME280;10473;42.734;24.258;2024-03-23T01:18:19;92196.22;;;1.80;56.85
20628;BME280;10473;42.734;24.258;2024-03-23T01:20:45;92189.63;;;1.61;57.51
20628;BME280;10473;42.734;24.258;2024-03-23T01:23:11;92184.41;;;1.71;57.06
20628;BME280;10473;42.734;24.258;2024-03-23T01:25:37;92185.69;;;1.75;56.85
20628;BME280;10473;42.734;24.258;2024-03-23T01:28:02;92190.59;;;1.68;56.69
20628;BME280;10473;42.734;24.258;2024-03-23T01:30:28;92190.06;;;1.30;57.62
20628;BME280;10473;42.734;24.258;2024-03-23T01:32:54;92190.44;;;1.17;58.60
20628;BME280;10473;42.734;24.258;2024-03-23T01:35:19;92181.97;;;1.35;58.38
20628;BME280;10473;42.734;24.258;2024-03-23T01:37:45;92179.06;;;1.56;57.47
20628;BME280;10473;42.734;24.258;2024-03-23T01:40:11;92169.16;;;1.53;57.75
20628;BME280;10473;42.734;24.258;2024-03-23T01:42:39;92174.47;;;1.59;57.35
20628;BME280;10473;42.734;24.258;2024-03-23T01:45:07;92175.75;;;1.63;57.38
20628;BME280;10473;42.734;24.258;2024-03-23T01:47:33;92163.66;;;1.66;57.63
20628;BME280;10473;42.734;24.258;2024-03-23T01:49:59;92174.13;;;1.54;57.84
20628;BME280;10473;42.734;24.258;2024-03-23T01:52:25;92175.44;;;1.67;57.31
20628;BME280;10473;42.734;24.258;2024-03-23T01:54:50;92176.03;;;1.60;57.08
20628;BME280;10473;42.734;24.258;2024-03-23T01:57:17;92184.53;;;1.69;57.34
20628;BME280;10473;42.734;24.258;2024-03-23T01:59:42;92181.50;;;1.66;57.23
20628;BME280;10473;42.734;24.258;2024-03-23T02:02:08;92175.56;;;1.57;57.24
20628;BME280;10473;42.734;24.258;2024-03-23T02:04:33;92185.16;;;1.63;57.19
20628;BME280;10473;42.734;24.258;2024-03-23T02:06:59;92188.00;;;1.60;57.92
20628;BME280;10473;42.734;24.258;2024-03-23T02:09:25;92180.75;;;1.73;56.79
20628;BME280;10473;42.734;24.258;2024-03-23T02:11:50;92176.97;;;1.51;57.87
20628;BME280;10473;42.734;24.258;2024-03-23T02:14:16;92180.94;;;1.80;57.11
20628;BME280;10473;42.734;24.258;2024-03-23T02:16:42;92169.63;;;1.48;58.26
20628;BME280;10473;42.734;24.258;2024-03-23T02:19:08;92175.66;;;1.47;57.87
20628;BME280;10473;42.734;24.258;2024-03-23T02:21:34;92165.84;;;1.34;58.10
20628;BME280;10473;42.734;24.258;2024-03-23T02:23:59;92173.22;;;1.63;57.71
20628;BME280;10473;42.734;24.258;2024-03-23T02:26:25;92168.00;;;1.47;58.17
20628;BME280;10473;42.734;24.258;2024-03-23T02:28:51;92172.22;;;1.56;58.03
20628;BME280;10473;42.734;24.258;2024-03-23T02:31:16;92169.75;;;1.47;58.31
20628;BME280;10473;42.734;24.258;2024-03-23T02:33:42;92166.28;;;1.21;58.94
20628;BME280;10473;42.734;24.258;2024-03-23T02:36:07;92158.84;;;1.28;59.11
20628;BME280;10473;42.734;24.258;2024-03-23T02:38:33;92160.34;;;1.21;58.85
20628;BME280;10473;42.734;24.258;2024-03-23T02:41:04;92170.72;;;1.19;59.48
20628;BME280;10473;42.734;24.258;2024-03-23T02:43:30;92166.03;;;1.15;59.78
20628;BME280;10473;42.734;24.258;2024-03-23T02:45:55;92169.09;;;1.18;59.69
20628;BME280;10473;42.734;24.258;2024-03-23T02:48:21;92166.28;;;1.03;60.06
20628;BME280;10473;42.734;24.258;2024-03-23T02:50:46;92164.00;;;1.18;58.72
20628;BME280;10473;42.734;24.258;2024-03-23T02:53:12;92169.41;;;1.15;59.57
20628;BME280;10473;42.734;24.258;2024-03-23T02:55:37;92163.59;;;1.05;59.43
20628;BME280;10473;42.734;24.258;2024-03-23T02:58:03;92164.00;;;1.18;58.80
20628;BME280;10473;42.734;24.258;2024-03-23T03:00:29;92163.75;;;1.30;58.20
20628;BME280;10473;42.734;24.258;2024-03-23T03:02:54;92161.66;;;1.51;57.78
20628;BME280;10473;42.734;24.258;2024-03-23T03:05:21;92161.59;;;1.35;58.45
20628;BME280;10473;42.734;24.258;2024-03-23T03:07:46;92156.13;;;1.30;58.51
20628;BME280;10473;42.734;24.258;2024-03-23T03:10:11;92162.91;;;1.21;58.95
20628;BME280;10473;42.734;24.258;2024-03-23T03:12:37;92165.13;;;1.42;58.26
20628;BME280;10473;42.734;24.258;2024-03-23T03:15:04;92166.56;;;1.18;59.92
20628;BME280;10473;42.734;24.258;2024-03-23T03:17:30;92163.16;;;1.36;59.24
20628;BME280;10473;42.734;24.258;2024-03-23T03:19:56;92160.25;;;1.05;60.67
20628;BME280;10473;42.734;24.258;2024-03-23T03:22:22;92161.47;;;1.18;60.09
20628;BME280;10473;42.734;24.258;2024-03-23T03:24:48;92162.44;;;1.17;59.44
20628;BME280;10473;42.734;24.258;2024-03-23T03:27:13;92158.25;;;1.42;59.56
20628;BME280;10473;42.734;24.258;2024-03-23T03:29:39;92160.34;;;1.21;60.12
20628;BME280;10473;42.734;24.258;2024-03-23T03:32:05;92160.28;;;1.31;59.47
20628;BME280;10473;42.734;24.258;2024-03-23T03:34:31;92160.56;;;1.28;60.23
20628;BME280;10473;42.734;24.258;2024-03-23T03:36:57;92160.75;;;1.34;60.04
20628;BME280;10473;42.734;24.258;2024-03-23T03:39:22;92162.81;;;1.31;59.76
20628;BME280;10473;42.734;24.258;2024-03-23T03:41:49;92162.47;;;1.26;60.14
20628;BME280;10473;42.734;24.258;2024-03-23T03:44:14;92167.63;;;1.34;60.79
20628;BME280;10473;42.734;24.258;2024-03-23T03:46:40;92163.66;;;1.13;60.38
20628;BME280;10473;42.734;24.258;2024-03-23T03:49:05;92163.63;;;1.31;60.33
20628;BME280;10473;42.734;24.258;2024-03-23T03:51:31;92166.47;;;1.28;60.32
20628;BME280;10473;42.734;24.258;2024-03-23T03:53:56;92160.94;;;1.33;59.87
20628;BME280;10473;42.734;24.258;2024-03-23T03:56:22;92164.69;;;1.02;61.48
20628;BME280;10473;42.734;24.258;2024-03-23T03:58:48;92170.09;;;1.26;60.41
20628;BME280;10473;42.734;24.258;2024-03-23T04:01:13;92170.28;;;1.24;60.89
20628;BME280;10473;42.734;24.258;2024-03-23T04:03:39;92172.06;;;1.32;60.29
20628;BME280;10473;42.734;24.258;2024-03-23T04:06:12;92171.31;;;1.13;61.95
20628;BME280;10473;42.734;24.258;2024-03-23T04:08:37;92166.09;;;1.23;60.98
20628;BME280;10473;42.734;24.258;2024-03-23T04:11:03;92175.16;;;1.17;61.56
20628;BME280;10473;42.734;24.258;2024-03-23T04:13:29;92170.06;;;1.17;60.81
20628;BME280;10473;42.734;24.258;2024-03-23T04:15:55;92169.13;;;1.00;62.63
20628;BME280;10473;42.734;24.258;2024-03-23T04:18:21;92166.53;;;0.92;62.02
20628;BME280;10473;42.734;24.258;2024-03-23T04:20:48;92165.22;;;0.88;62.26
20628;BME280;10473;42.734;24.258;2024-03-23T04:23:13;92167.31;;;0.93;62.80
20628;BME280;10473;42.734;24.258;2024-03-23T04:25:39;92169.72;;;0.94;62.49
20628;BME280;10473;42.734;24.258;2024-03-23T04:28:05;92168.69;;;1.05;62.02
20628;BME280;10473;42.734;24.258;2024-03-23T04:30:30;92169.69;;;1.12;62.12
20628;BME280;10473;42.734;24.258;2024-03-23T04:32:57;92175.91;;;0.92;63.68
20628;BME280;10473;42.734;24.258;2024-03-23T04:35:24;92171.00;;;1.16;62.23
20628;BME280;10473;42.734;24.258;2024-03-23T04:37:55;92161.78;;;1.15;62.27
20628;BME280;10473;42.734;24.258;2024-03-23T04:40:21;92162.13;;;1.20;61.60
20628;BME280;10473;42.734;24.258;2024-03-23T04:42:46;92164.00;;;1.18;62.11
20628;BME280;10473;42.734;24.258;2024-03-23T04:45:12;92163.47;;;1.33;61.96
20628;BME280;10473;42.734;24.258;2024-03-23T04:47:38;92160.75;;;1.08;62.24
20628;BME280;10473;42.734;24.258;2024-03-23T04:50:04;92168.59;;;1.41;62.08
20628;BME280;10473;42.734;24.258;2024-03-23T04:52:30;92173.25;;;1.72;61.72
20628;BME280;10473;42.734;24.258;2024-03-23T04:54:56;92176.09;;;2.03;59.81
20628;BME280;10473;42.734;24.258;2024-03-23T04:57:22;92170.75;;;2.22;59.78
20628;BME280;10473;42.734;24.258;2024-03-23T04:59:47;92174.03;;;2.57;59.67
20628;BME280;10473;42.734;24.258;2024-03-23T05:02:14;92175.78;;;2.73;58.40
20628;BME280;10473;42.734;24.258;2024-03-23T05:04:39;92165.28;;;3.01;56.74
20628;BME280;10473;42.734;24.258;2024-03-23T05:07:09;92167.81;;;3.58;55.54
20628;BME280;10473;42.734;24.258;2024-03-23T05:09:34;92167.53;;;4.01;54.91
20628;BME280;10473;42.734;24.258;2024-03-23T05:12:00;92163.34;;;4.08;55.08
20628;BME280;10473;42.734;24.258;2024-03-23T05:14:26;92163.63;;;4.21;54.23
20628;BME280;10473;42.734;24.258;2024-03-23T05:16:52;92157.72;;;4.52;53.90
20628;BME280;10473;42.734;24.258;2024-03-23T05:19:20;92149.94;;;4.91;52.92
20628;BME280;10473;42.734;24.258;2024-03-23T05:21:46;92163.22;;;5.86;50.69
20628;BME280;10473;42.734;24.258;2024-03-23T05:24:11;92154.19;;;6.49;49.13
20628;BME280;10473;42.734;24.258;2024-03-23T05:26:38;92164.75;;;6.25;49.62
20628;BME280;10473;42.734;24.258;2024-03-23T05:29:03;92158.00;;;5.94;50.47
20628;BME280;10473;42.734;24.258;2024-03-23T05:31:31;92151.50;;;6.57;49.02
20628;BME280;10473;42.734;24.258;2024-03-23T05:33:57;92147.00;;;6.81;45.28
20628;BME280;10473;42.734;24.258;2024-03-23T05:36:22;92152.81;;;7.33;43.18
20628;BME280;10473;42.734;24.258;2024-03-23T05:38:50;92152.38;;;6.65;44.16
20628;BME280;10473;42.734;24.258;2024-03-23T05:41:15;92163.06;;;6.83;44.75
20628;BME280;10473;42.734;24.258;2024-03-23T05:43:41;92158.09;;;7.03;45.07
20628;BME280;10473;42.734;24.258;2024-03-23T05:46:07;92155.31;;;7.26;45.08
20628;BME280;10473;42.734;24.258;2024-03-23T05:48:36;92145.00;;;7.48;45.05
20628;BME280;10473;42.734;24.258;2024-03-23T05:51:02;92150.03;;;7.56;44.38
20628;BME280;10473;42.734;24.258;2024-03-23T05:53:28;92149.22;;;7.27;44.49
20628;BME280;10473;42.734;24.258;2024-03-23T05:56:04;92147.97;;;7.45;44.24
20628;BME280;10473;42.734;24.258;2024-03-23T05:58:30;92151.78;;;7.27;44.94
20628;BME280;10473;42.734;24.258;2024-03-23T06:01:00;92144.00;;;7.20;44.40
20628;BME280;10473;42.734;24.258;2024-03-23T06:03:27;92143.94;;;7.64;43.50
20628;BME280;10473;42.734;24.258;2024-03-23T06:05:53;92147.13;;;7.66;43.43
20628;BME280;10473;42.734;24.258;2024-03-23T06:08:19;92151.38;;;8.56;42.45
20628;BME280;10473;42.734;24.258;2024-03-23T06:10:45;92149.75;;;8.42;42.24
20628;BME280;10473;42.734;24.258;2024-03-23T06:13:11;92155.81;;;8.69;40.78
20628;BME280;10473;42.734;24.258;2024-03-23T06:15:37;92148.59;;;8.51;41.90
20628;BME280;10473;42.734;24.258;2024-03-23T06:18:03;92137.00;;;8.34;42.12
20628;BME280;10473;42.734;24.258;2024-03-23T06:20:30;92147.28;;;8.75;41.35
20628;BME280;10473;42.734;24.258;2024-03-23T06:22:55;92144.50;;;8.63;41.47
20628;BME280;10473;42.734;24.258;2024-03-23T06:25:21;92134.84;;;8.92;41.34
20628;BME280;10473;42.734;24.258;2024-03-23T06:27:46;92148.00;;;9.57;39.27
20628;BME280;10473;42.734;24.258;2024-03-23T06:30:12;92136.91;;;9.37;37.71
20628;BME280;10473;42.734;24.258;2024-03-23T06:32:38;92148.59;;;9.66;38.96
20628;BME280;10473;42.734;24.258;2024-03-23T06:35:04;92141.25;;;9.70;39.00
20628;BME280;10473;42.734;24.258;2024-03-23T06:37:34;92140.22;;;9.91;38.78
20628;BME280;10473;42.734;24.258;2024-03-23T06:39:59;92145.63;;;9.62;39.30
20628;BME280;10473;42.734;24.258;2024-03-23T06:42:25;92145.81;;;9.87;39.71
20628;BME280;10473;42.734;24.258;2024-03-23T06:44:51;92137.69;;;9.37;41.18
20628;BME280;10473;42.734;24.258;2024-03-23T06:47:16;92138.81;;;10.01;39.39
20628;BME280;10473;42.734;24.258;2024-03-23T06:49:42;92148.78;;;9.44;39.82
20628;BME280;10473;42.734;24.258;2024-03-23T06:52:08;92140.25;;;9.51;40.96
20628;BME280;10473;42.734;24.258;2024-03-23T06:54:33;92145.56;;;10.09;39.56
20628;BME280;10473;42.734;24.258;2024-03-23T06:56:59;92149.22;;;10.60;37.99
20628;BME280;10473;42.734;24.258;2024-03-23T06:59:24;92150.81;;;10.99;36.13
20628;BME280;10473;42.734;24.258;2024-03-23T07:01:50;92146.72;;;10.85;36.77
20628;BME280;10473;42.734;24.258;2024-03-23T07:04:15;92146.69;;;11.30;35.04
20628;BME280;10473;42.734;24.258;2024-03-23T07:06:45;92141.13;;;11.77;35.94
20628;BME280;10473;42.734;24.258;2024-03-23T07:09:11;92149.00;;;11.06;34.66
20628;BME280;10473;42.734;24.258;2024-03-23T07:11:37;92135.06;;;11.07;35.86
20628;BME280;10473;42.734;24.258;2024-03-23T07:14:03;92135.34;;;11.56;34.85
20628;BME280;10473;42.734;24.258;2024-03-23T07:16:29;92128.59;;;11.99;36.26
20628;BME280;10473;42.734;24.258;2024-03-23T07:18:54;92131.94;;;12.24;35.55
20628;BME280;10473;42.734;24.258;2024-03-23T07:21:21;92131.44;;;11.97;34.41
20628;BME280;10473;42.734;24.258;2024-03-23T07:23:47;92139.81;;;11.42;36.10
20628;BME280;10473;42.734;24.258;2024-03-23T07:26:13;92137.28;;;12.11;34.12
20628;BME280;10473;42.734;24.258;2024-03-23T07:28:38;92132.22;;;12.16;34.09
20628;BME280;10473;42.734;24.258;2024-03-23T07:31:13;92133.53;;;12.25;33.98
20628;BME280;10473;42.734;24.258;2024-03-23T07:33:45;92123.81;;;11.52;34.58
20628;BME280;10473;42.734;24.258;2024-03-23T07:36:11;92124.31;;;11.86;34.61
20628;BME280;10473;42.734;24.258;2024-03-23T07:38:37;92127.72;;;11.86;34.94
20628;BME280;10473;42.734;24.258;2024-03-23T07:41:07;92129.72;;;10.57;37.06
20628;BME280;10473;42.734;24.258;2024-03-23T07:43:32;92125.47;;;11.40;36.11
20628;BME280;10473;42.734;24.258;2024-03-23T07:45:59;92120.56;;;12.07;33.91
20628;BME280;10473;42.734;24.258;2024-03-23T07:48:25;92108.16;;;12.64;33.90
20628;BME280;10473;42.734;24.258;2024-03-23T07:53:54;92117.44;;;13.02;33.47
20628;BME280;10473;42.734;24.258;2024-03-23T07:56:20;92118.03;;;13.04;33.43
20628;BME280;10473;42.734;24.258;2024-03-23T07:58:47;92117.09;;;13.29;31.85
20628;BME280;10473;42.734;24.258;2024-03-23T08:01:15;92113.13;;;12.66;34.10
20628;BME280;10473;42.734;24.258;2024-03-23T08:03:45;92110.31;;;13.28;33.71
20628;BME280;10473;42.734;24.258;2024-03-23T08:08:41;92110.44;;;12.72;32.97
20628;BME280;10473;42.734;24.258;2024-03-23T08:11:08;92103.41;;;13.75;32.67
20628;BME280;10473;42.734;24.258;2024-03-23T08:13:35;92109.53;;;12.97;32.54
20628;BME280;10473;42.734;24.258;2024-03-23T08:16:02;92110.19;;;12.92;32.76
20628;BME280;10473;42.734;24.258;2024-03-23T08:18:29;92108.19;;;12.27;35.88
20628;BME280;10473;42.734;24.258;2024-03-23T08:21:05;92112.19;;;12.60;34.51
20628;BME280;10473;42.734;24.258;2024-03-23T08:23:32;92113.31;;;12.83;35.26
20628;BME280;10473;42.734;24.258;2024-03-23T08:26:09;92106.28;;;12.71;34.07
20628;BME280;10473;42.734;24.258;2024-03-23T08:28:36;92105.00;;;12.07;35.98
20628;BME280;10473;42.734;24.258;2024-03-23T08:31:12;92106.06;;;12.54;35.35
20628;BME280;10473;42.734;24.258;2024-03-23T08:33:40;92102.41;;;12.62;35.00
20628;BME280;10473;42.734;24.258;2024-03-23T08:36:09;92106.44;;;13.49;34.54
20628;BME280;10473;42.734;24.258;2024-03-23T08:38:37;92100.34;;;13.25;34.70
20628;BME280;10473;42.734;24.258;2024-03-23T08:43:30;92088.03;;;13.74;31.63
20628;BME280;10473;42.734;24.258;2024-03-23T08:46:14;92090.75;;;13.25;32.01
20628;BME280;10473;42.734;24.258;2024-03-23T08:48:44;92097.28;;;13.93;30.98
20628;BME280;10473;42.734;24.258;2024-03-23T08:51:13;92098.34;;;12.97;31.90
20628;BME280;10473;42.734;24.258;2024-03-23T08:53:39;92088.78;;;13.39;30.49
20628;BME280;10473;42.734;24.258;2024-03-23T08:56:06;92087.41;;;13.37;31.01
20628;BME280;10473;42.734;24.258;2024-03-23T08:58:33;92095.94;;;13.91;30.85
20628;BME280;10473;42.734;24.258;2024-03-23T09:01:11;92083.81;;;14.20;31.69
20628;BME280;10473;42.734;24.258;2024-03-23T09:03:40;92087.75;;;12.98;31.75
20628;BME280;10473;42.734;24.258;2024-03-23T09:06:10;92082.56;;;14.11;29.95
20628;BME280;10473;42.734;24.258;2024-03-23T09:08:37;92078.41;;;13.86;29.80
20628;BME280;10473;42.734;24.258;2024-03-23T09:11:07;92082.41;;;14.41;30.27
20628;BME280;10473;42.734;24.258;2024-03-23T09:13:33;92066.75;;;14.93;29.31
20628;BME280;10473;42.734;24.258;2024-03-23T09:15:59;92071.19;;;12.81;29.59
20628;BME280;10473;42.734;24.258;2024-03-23T09:18:25;92063.25;;;13.83;29.17
20628;BME280;10473;42.734;24.258;2024-03-23T09:20:51;92059.19;;;13.87;28.34
20628;BME280;10473;42.734;24.258;2024-03-23T09:23:16;92068.34;;;13.78;28.82
20628;BME280;10473;42.734;24.258;2024-03-23T09:25:42;92057.81;;;14.08;27.81
20628;BME280;10473;42.734;24.258;2024-03-23T09:28:07;92054.44;;;13.37;30.10
20628;BME280;10473;42.734;24.258;2024-03-23T09:30:36;92051.66;;;13.20;28.95
20628;BME280;10473;42.734;24.258;2024-03-23T09:33:10;92053.97;;;12.98;29.89
20628;BME280;10473;42.734;24.258;2024-03-23T09:35:40;92046.19;;;13.64;29.67
20628;BME280;10473;42.734;24.258;2024-03-23T09:38:06;92050.72;;;14.04;30.70
20628;BME280;10473;42.734;24.258;2024-03-23T09:40:35;92040.78;;;14.41;28.00
20628;BME280;10473;42.734;24.258;2024-03-23T09:43:06;92035.28;;;14.26;30.23
20628;BME280;10473;42.734;24.258;2024-03-23T09:45:34;92038.38;;;14.51;30.45
20628;BME280;10473;42.734;24.258;2024-03-23T09:48:01;92028.81;;;14.40;31.44
20628;BME280;10473;42.734;24.258;2024-03-23T09:50:27;92029.72;;;14.22;30.18
20628;BME280;10473;42.734;24.258;2024-03-23T09:52:52;92028.31;;;14.03;29.86
20628;BME280;10473;42.734;24.258;2024-03-23T09:55:18;92017.59;;;14.39;30.63
20628;BME280;10473;42.734;24.258;2024-03-23T09:57:43;92016.28;;;14.66;30.53
20628;BME280;10473;42.734;24.258;2024-03-23T10:00:09;92013.59;;;14.61;29.14
20628;BME280;10473;42.734;24.258;2024-03-23T10:02:37;92016.28;;;14.25;29.74
20628;BME280;10473;42.734;24.258;2024-03-23T10:05:03;92016.53;;;14.52;31.05
20628;BME280;10473;42.734;24.258;2024-03-23T10:07:29;92004.19;;;15.73;28.98
20628;BME280;10473;42.734;24.258;2024-03-23T10:09:55;92000.09;;;14.92;29.43
20628;BME280;10473;42.734;24.258;2024-03-23T10:12:21;91995.69;;;14.64;30.00
20628;BME280;10473;42.734;24.258;2024-03-23T10:14:47;92003.63;;;14.17;30.82
20628;BME280;10473;42.734;24.258;2024-03-23T10:17:15;92000.31;;;14.33;30.14
20628;BME280;10473;42.734;24.258;2024-03-23T10:19:46;91994.53;;;13.91;30.13
20628;BME280;10473;42.734;24.258;2024-03-23T10:22:23;91986.81;;;14.94;31.04
20628;BME280;10473;42.734;24.258;2024-03-23T10:24:50;91981.03;;;15.59;33.20
20628;BME280;10473;42.734;24.258;2024-03-23T10:27:20;91978.06;;;15.34;28.27
20628;BME280;10473;42.734;24.258;2024-03-23T10:29:47;91975.50;;;14.71;30.30
20628;BME280;10473;42.734;24.258;2024-03-23T10:32:17;91960.81;;;14.65;28.34
20628;BME280;10473;42.734;24.258;2024-03-23T10:34:43;91963.53;;;15.21;29.41
20628;BME280;10473;42.734;24.258;2024-03-23T10:37:09;91950.19;;;15.17;32.11
20628;BME280;10473;42.734;24.258;2024-03-23T10:39:39;91960.66;;;15.56;29.52
20628;BME280;10473;42.734;24.258;2024-03-23T10:42:06;91948.06;;;15.70;28.54
20628;BME280;10473;42.734;24.258;2024-03-23T10:44:33;91947.03;;;15.15;29.80
20628;BME280;10473;42.734;24.258;2024-03-23T10:47:00;91939.47;;;14.97;29.73
20628;BME280;10473;42.734;24.258;2024-03-23T10:49:28;91938.28;;;15.05;29.94
20628;BME280;10473;42.734;24.258;2024-03-23T10:52:04;91944.72;;;14.11;29.84
20628;BME280;10473;42.734;24.258;2024-03-23T10:54:31;91931.72;;;14.68;30.22
20628;BME280;10473;42.734;24.258;2024-03-23T10:57:05;91926.44;;;14.80;29.93
20628;BME280;10473;42.734;24.258;2024-03-23T10:59:33;91920.19;;;15.32;28.98
20628;BME280;10473;42.734;24.258;2024-03-23T11:02:01;91917.28;;;15.89;30.63
20628;BME280;10473;42.734;24.258;2024-03-23T11:06:56;91916.41;;;15.06;29.47
20628;BME280;10473;42.734;24.258;2024-03-23T11:17:22;91894.91;;;15.32;29.25
20628;BME280;10473;42.734;24.258;2024-03-23T11:19:58;91892.22;;;15.44;29.80
20628;BME280;10473;42.734;24.258;2024-03-23T11:25:18;91886.75;;;15.29;29.29
20628;BME280;10473;42.734;24.258;2024-03-23T11:27:47;91881.63;;;16.22;27.51
20628;BME280;10473;42.734;24.258;2024-03-23T11:32:46;91874.03;;;15.49;28.64
20628;BME280;10473;42.734;24.258;2024-03-23T11:38:15;91863.09;;;16.18;29.12
20628;BME280;10473;42.734;24.258;2024-03-23T11:40:42;91858.25;;;16.05;29.19
20628;BME280;10473;42.734;24.258;2024-03-23T11:43:18;91852.97;;;15.73;29.80
20628;BME280;10473;42.734;24.258;2024-03-23T11:45:49;91856.50;;;15.89;27.66
20628;BME280;10473;42.734;24.258;2024-03-23T11:48:19;91841.47;;;15.74;27.33
20628;BME280;10473;42.734;24.258;2024-03-23T11:50:47;91841.34;;;15.64;27.36
20628;BME280;10473;42.734;24.258;2024-03-23T11:53:21;91837.59;;;16.58;28.78
20628;BME280;10473;42.734;24.258;2024-03-23T11:55:52;91830.97;;;16.45;27.41
20628;BME280;10473;42.734;24.258;2024-03-23T11:58:19;91829.53;;;16.97;26.85
20628;BME280;10473;42.734;24.258;2024-03-23T12:00:52;91831.00;;;16.50;27.56
20628;BME280;10473;42.734;24.258;2024-03-23T12:03:19;91829.91;;;16.14;28.24
20628;BME280;10473;42.734;24.258;2024-03-23T12:05:50;91807.81;;;15.94;27.25
20628;BME280;10473;42.734;24.258;2024-03-23T12:08:29;91808.25;;;15.86;27.05
20628;BME280;10473;42.734;24.258;2024-03-23T12:11:08;91817.22;;;15.51;28.52
20628;BME280;10473;42.734;24.258;2024-03-23T12:13:39;91817.94;;;15.91;29.79
20628;BME280;10473;42.734;24.258;2024-03-23T12:16:18;91810.13;;;15.69;27.06
20628;BME280;10473;42.734;24.258;2024-03-23T12:18:50;91814.19;;;16.09;26.68
20628;BME280;10473;42.734;24.258;2024-03-23T12:21:18;91801.75;;;16.16;27.88
20628;BME280;10473;42.734;24.258;2024-03-23T12:23:44;91799.81;;;16.33;28.17
20628;BME280;10473;42.734;24.258;2024-03-23T12:26:15;91795.81;;;16.26;27.21
20628;BME280;10473;42.734;24.258;2024-03-23T12:28:44;91782.78;;;16.63;26.91
20628;BME280;10473;42.734;24.258;2024-03-23T12:31:10;91783.09;;;16.34;25.92
20628;BME280;10473;42.734;24.258;2024-03-23T12:33:36;91786.84;;;15.40;27.25
20628;BME280;10473;42.734;24.258;2024-03-23T12:36:02;91781.75;;;15.06;27.01
20628;BME280;10473;42.734;24.258;2024-03-23T12:38:27;91777.03;;;15.47;26.56
20628;BME280;10473;42.734;24.258;2024-03-23T12:40:53;91775.09;;;15.59;25.25
20628;BME280;10473;42.734;24.258;2024-03-23T12:43:18;91767.53;;;15.85;26.30
20628;BME280;10473;42.734;24.258;2024-03-23T12:45:47;91768.97;;;15.49;26.25
20628;BME280;10473;42.734;24.258;2024-03-23T12:48:13;91758.44;;;15.38;26.37
20628;BME280;10473;42.734;24.258;2024-03-23T12:50:38;91757.09;;;15.36;27.53
20628;BME280;10473;42.734;24.258;2024-03-23T12:53:04;91763.81;;;15.32;26.41
20628;BME280;10473;42.734;24.258;2024-03-23T12:55:29;91750.47;;;15.28;25.88
20628;BME280;10473;42.734;24.258;2024-03-23T12:57:55;91751.53;;;15.27;25.43
20628;BME280;10473;42.734;24.258;2024-03-23T13:00:21;91747.66;;;15.79;26.84
20628;BME280;10473;42.734;24.258;2024-03-23T13:02:47;91747.75;;;15.89;26.46
20628;BME280;10473;42.734;24.258;2024-03-23T13:05:13;91745.78;;;16.01;25.26
20628;BME280;10473;42.734;24.258;2024-03-23T13:07:39;91744.66;;;15.92;26.43
20628;BME280;10473;42.734;24.258;2024-03-23T13:10:05;91744.06;;;15.63;25.30
20628;BME280;10473;42.734;24.258;2024-03-23T13:12:31;91739.47;;;15.70;26.09
20628;BME280;10473;42.734;24.258;2024-03-23T13:15:01;91735.00;;;15.93;24.77
20628;BME280;10473;42.734;24.258;2024-03-23T13:17:27;91729.25;;;15.91;25.42
20628;BME280;10473;42.734;24.258;2024-03-23T13:19:55;91718.00;;;15.63;24.80
20628;BME280;10473;42.734;24.258;2024-03-23T13:22:24;91722.88;;;16.09;24.54
20628;BME280;10473;42.734;24.258;2024-03-23T13:24:50;91718.16;;;16.38;23.51
20628;BME280;10473;42.734;24.258;2024-03-23T13:27:15;91721.94;;;16.57;24.35
20628;BME280;10473;42.734;24.258;2024-03-23T13:29:41;91720.22;;;16.36;24.96
20628;BME280;10473;42.734;24.258;2024-03-23T13:32:07;91717.81;;;16.72;24.36
20628;BME280;10473;42.734;24.258;2024-03-23T13:34:33;91714.34;;;16.98;23.98
20628;BME280;10473;42.734;24.258;2024-03-23T13:37:00;91717.63;;;16.04;23.34
20628;BME280;10473;42.734;24.258;2024-03-23T13:39:26;91713.28;;;15.87;23.92
20628;BME280;10473;42.734;24.258;2024-03-23T13:41:53;91718.78;;;16.18;23.84
20628;BME280;10473;42.734;24.258;2024-03-23T13:44:20;91717.50;;;16.20;23.70
20628;BME280;10473;42.734;24.258;2024-03-23T13:46:46;91700.88;;;16.37;22.21
20628;BME280;10473;42.734;24.258;2024-03-23T13:49:38;91710.53;;;16.31;23.04
20628;BME280;10473;42.734;24.258;2024-03-23T13:52:05;91703.06;;;15.80;26.82
20628;BME280;10473;42.734;24.258;2024-03-23T13:54:32;91713.03;;;15.84;30.38
20628;BME280;10473;42.734;24.258;2024-03-23T13:56:57;91703.50;;;15.45;32.09
20628;BME280;10473;42.734;24.258;2024-03-23T13:59:23;91709.19;;;14.93;33.23
20628;BME280;10473;42.734;24.258;2024-03-23T14:01:49;91710.13;;;14.31;34.99
20628;BME280;10473;42.734;24.258;2024-03-23T14:04:16;91698.66;;;14.10;34.30
20628;BME280;10473;42.734;24.258;2024-03-23T14:06:42;91699.47;;;14.49;34.88
20628;BME280;10473;42.734;24.258;2024-03-23T14:09:10;91697.78;;;14.04;35.41
20628;BME280;10473;42.734;24.258;2024-03-23T14:11:36;91705.81;;;13.69;36.13
20628;BME280;10473;42.734;24.258;2024-03-23T14:14:02;91696.84;;;13.76;36.67